createdAt,value
2023-03-13T04:03:34.295Z,72.99
2023-03-13T04:06:01.958Z,73.19
2023-03-13T04:08:29.767Z,73.41
2023-03-13T04:10:57.658Z,73.76
2023-03-13T04:13:29.240Z,74.27
2023-03-13T04:15:59.619Z,74.39
2023-03-13T04:18:27.063Z,74.46
2023-03-13T04:21:03.532Z,74.61
2023-03-13T04:23:36.274Z,75.42
2023-03-13T04:26:23.795Z,75.76
2023-03-13T04:29:06.518Z,75.74
2023-03-13T04:32:00.738Z,75.69
2023-03-13T04:35:03.191Z,76.66
2023-03-13T04:37:49.596Z,76.47
2023-03-13T04:40:36.944Z,76.99
2023-03-13T04:43:30.282Z,77.49
2023-03-13T04:46:18.600Z,78.08
2023-03-13T04:49:11.849Z,78.84
2023-03-13T04:52:10.219Z,78.56
2023-03-13T04:54:57.900Z,79.31
2023-03-13T04:57:57.410Z,79.91
2023-03-13T05:00:44.210Z,79.64
2023-03-13T05:03:37.479Z,79.94
2023-03-13T05:06:25.013Z,80.32
2023-03-13T05:09:27.454Z,80.39
2023-03-13T05:12:17.760Z,80.74
2023-03-13T05:15:15.881Z,81.25
2023-03-13T05:18:06.290Z,81.31
2023-03-13T05:20:56.417Z,81.17
2023-03-13T05:23:53.016Z,81.20
2023-03-13T05:26:46.495Z,81.54
2023-03-13T05:29:33.902Z,81.63
2023-03-13T05:32:17.406Z,82.02
2023-03-13T05:35:14.337Z,81.91
2023-03-13T05:38:07.471Z,83.33
2023-03-13T05:41:07.216Z,83.14
2023-03-13T05:44:00.677Z,83.30
2023-03-13T05:46:54.566Z,83.52
2023-03-13T05:50:00.261Z,83.71
2023-03-13T05:52:47.774Z,83.37
2023-03-13T05:55:35.105Z,83.25
2023-03-13T05:58:20.691Z,83.61
2023-03-13T06:01:13.536Z,83.16
2023-03-13T06:04:01.199Z,83.87
2023-03-13T06:06:39.841Z,83.71
2023-03-13T06:09:20.235Z,84.09
2023-03-13T06:12:08.565Z,84.69
2023-03-13T06:14:56.606Z,85.16
2023-03-13T06:17:43.893Z,85.48
2023-03-13T06:20:25.642Z,85.35
2023-03-13T06:23:13.063Z,85.60
2023-03-13T06:26:01.868Z,86.02
2023-03-13T06:28:42.324Z,86.51
2023-03-13T06:31:30.335Z,86.51
2023-03-13T06:34:00.928Z,86.66
2023-03-13T06:36:47.004Z,86.57
2023-03-13T06:39:34.686Z,86.74
2023-03-13T06:42:20.616Z,87.02
2023-03-13T06:45:09.680Z,87.07
2023-03-13T06:47:57.508Z,87.21
2023-03-13T06:50:40.872Z,87.57
2023-03-13T06:53:08.322Z,87.23
2023-03-13T06:55:38.617Z,87.27
2023-03-13T06:58:05.946Z,87.51
2023-03-13T07:00:53.393Z,87.43
2023-03-13T07:03:41.857Z,87.14
2023-03-13T07:06:29.468Z,86.96
2023-03-13T07:09:16.927Z,87.34
2023-03-13T07:11:54.456Z,87.64
2023-03-13T07:14:41.872Z,87.29
2023-03-13T07:17:29.766Z,87.11
2023-03-13T07:20:17.957Z,86.92
2023-03-13T07:23:05.793Z,86.90
2023-03-13T07:25:45.755Z,86.88
2023-03-13T07:28:37.557Z,86.77
2023-03-13T07:31:19.980Z,86.59
2023-03-13T07:34:07.565Z,86.75
2023-03-13T07:36:54.982Z,87.07
2023-03-13T07:39:42.685Z,86.63
2023-03-13T07:42:30.057Z,86.47
2023-03-13T07:45:00.242Z,86.46
2023-03-13T07:47:47.630Z,86.45
2023-03-13T07:50:35.258Z,86.06
2023-03-13T07:53:07.009Z,85.93
2023-03-13T07:56:00.316Z,85.84
2023-03-13T07:58:48.558Z,85.82
2023-03-13T08:01:36.737Z,85.51
2023-03-13T08:04:24.215Z,85.42
2023-03-13T08:07:09.213Z,85.27
2023-03-13T08:09:36.780Z,85.00
2023-03-13T08:12:24.348Z,84.69
2023-03-13T08:15:13.500Z,84.44
2023-03-13T08:17:51.988Z,84.18
2023-03-13T08:20:39.386Z,83.95
2023-03-13T08:23:25.214Z,83.64
2023-03-13T08:26:15.490Z,83.74
2023-03-13T08:28:56.725Z,83.53
2023-03-13T08:31:25.492Z,83.28
2023-03-13T08:33:53.610Z,83.43
2023-03-13T08:36:42.501Z,83.42
2023-03-13T08:39:30.108Z,83.27
2023-03-13T08:42:17.418Z,83.09
2023-03-13T08:44:57.503Z,83.13
2023-03-13T08:47:44.859Z,82.92
2023-03-13T08:50:31.936Z,82.69
2023-03-13T08:53:19.480Z,82.65
2023-03-13T08:55:56.802Z,82.63
2023-03-13T08:58:44.557Z,82.66
2023-03-13T09:01:34.005Z,82.29
2023-03-13T09:04:14.483Z,81.68
2023-03-13T09:07:01.958Z,80.85
2023-03-13T09:09:49.594Z,80.28
2023-03-13T09:12:36.983Z,79.81
2023-03-13T09:15:24.817Z,78.80
2023-03-13T09:17:55.581Z,78.22
2023-03-13T09:20:25.924Z,77.05
2023-03-13T09:23:03.355Z,76.61
2023-03-13T09:25:43.094Z,75.14
2023-03-13T09:28:10.355Z,74.83
2023-03-13T09:30:37.800Z,73.27
2023-03-13T09:33:25.713Z,73.16
2023-03-13T09:36:05.044Z,73.02
2023-03-13T09:38:52.856Z,71.86
2023-03-13T09:41:44.502Z,71.33
2023-03-13T09:44:27.319Z,70.86
2023-03-13T09:47:22.529Z,70.45
2023-03-13T09:50:16.192Z,70.22
2023-03-13T09:52:55.918Z,69.85
2023-03-13T09:55:31.815Z,70.04
2023-03-13T09:58:09.825Z,69.42
2023-03-13T10:00:40.787Z,69.51
2023-03-13T10:03:24.351Z,69.60
2023-03-13T10:05:54.522Z,69.82
2023-03-13T10:08:33.711Z,69.38
2023-03-13T10:11:08.323Z,68.83
2023-03-13T10:13:43.365Z,69.26
2023-03-13T10:16:15.337Z,69.56
2023-03-13T10:18:50.094Z,68.96
2023-03-13T10:21:21.255Z,68.37
2023-03-13T10:23:57.010Z,68.68
2023-03-13T10:26:35.651Z,68.45
2023-03-13T10:29:23.260Z,68.40
2023-03-13T10:31:57.658Z,68.84
2023-03-13T10:34:25.089Z,68.91
2023-03-13T10:36:58.157Z,68.96
2023-03-13T10:39:28.038Z,69.12
2023-03-13T10:42:01.453Z,69.11
2023-03-13T10:44:34.614Z,69.44
2023-03-13T10:47:16.167Z,69.75
2023-03-13T10:49:51.413Z,70.08
2023-03-13T10:52:34.554Z,70.43
2023-03-13T10:55:05.921Z,70.78
2023-03-13T10:57:35.841Z,70.77
2023-03-13T11:00:11.510Z,71.04
2023-03-13T11:02:40.816Z,71.01
2023-03-13T11:05:38.682Z,70.66
2023-03-13T11:08:21.078Z,70.78
2023-03-13T11:11:01.508Z,70.38
2023-03-13T11:13:39.029Z,69.47
2023-03-13T11:16:15.305Z,69.48
2023-03-13T11:18:52.787Z,69.60
2023-03-13T11:21:25.588Z,69.43
2023-03-13T11:24:01.930Z,68.21
2023-03-13T11:26:38.406Z,68.06
2023-03-13T11:29:15.172Z,67.66
2023-03-13T11:31:46.506Z,66.84
2023-03-13T11:34:24.104Z,65.97
2023-03-13T11:37:02.558Z,65.38
2023-03-13T11:39:51.941Z,64.90
2023-03-13T11:42:39.297Z,64.83
2023-03-13T11:45:17.532Z,64.94
2023-03-13T11:47:55.159Z,64.33
2023-03-13T11:50:53.337Z,64.39
2023-03-13T11:53:39.809Z,64.32
2023-03-13T11:56:14.862Z,63.80
2023-03-13T11:59:08.534Z,63.54
2023-03-13T12:01:41.593Z,62.79
2023-03-13T12:04:18.955Z,62.24
2023-03-13T12:06:51.341Z,61.58
2023-03-13T12:09:23.570Z,62.70
2023-03-13T12:11:59.545Z,63.22
2023-03-13T12:14:31.672Z,63.08
2023-03-13T12:17:04.686Z,63.28
2023-03-13T12:19:35.923Z,62.21
2023-03-13T12:22:15.387Z,62.86
2023-03-13T12:24:51.819Z,63.26
2023-03-13T12:27:32.737Z,62.98
2023-03-13T12:30:04.455Z,63.82
2023-03-13T12:32:38.530Z,64.14
2023-03-13T12:35:18.339Z,64.37
2023-03-13T12:37:54.126Z,64.40
2023-03-13T12:40:47.599Z,64.90
2023-03-13T12:43:23.206Z,65.08
2023-03-13T12:46:06.753Z,65.54
2023-03-13T12:48:58.164Z,66.24
2023-03-13T12:51:39.587Z,66.74
2023-03-13T12:54:34.426Z,67.29
2023-03-13T12:57:24.873Z,67.61
2023-03-13T12:59:56.809Z,68.16
2023-03-13T13:02:34.065Z,68.58
2023-03-13T13:05:04.187Z,69.06
2023-03-13T13:07:33.769Z,69.53
2023-03-13T13:10:22.427Z,70.24
2023-03-13T13:13:10.413Z,70.84
2023-03-13T13:16:00.409Z,71.52
2023-03-13T13:18:32.469Z,72.54
2023-03-13T13:21:26.560Z,72.83
2023-03-13T13:24:42.682Z,73.53
2023-03-13T13:27:46.782Z,74.10
2023-03-13T13:30:35.697Z,75.04
2023-03-13T13:33:38.951Z,75.19
2023-03-13T13:36:30.272Z,76.06
2023-03-13T13:38:58.541Z,76.91
2023-03-13T13:41:41.505Z,77.15
2023-03-13T13:44:31.297Z,77.50
2023-03-13T13:47:02.162Z,78.25
2023-03-13T13:49:56.502Z,79.07
2023-03-13T13:52:40.851Z,80.00
2023-03-13T13:55:45.880Z,80.53
2023-03-13T13:58:19.605Z,81.76
2023-03-13T14:00:52.078Z,81.78
2023-03-13T14:03:23.724Z,82.79
2023-03-13T14:05:56.084Z,82.99
2023-03-13T14:08:30.859Z,83.29
2023-03-13T14:11:11.447Z,83.36
2023-03-13T14:13:38.836Z,84.11
2023-03-13T14:16:26.082Z,83.38
2023-03-13T14:18:56.827Z,83.23
2023-03-13T14:21:27.483Z,82.97
2023-03-13T14:23:54.827Z,83.16
2023-03-13T14:26:23.857Z,82.87
2023-03-13T14:28:52.678Z,82.77
2023-03-13T14:31:31.898Z,82.86
2023-03-13T14:34:01.285Z,82.45
2023-03-13T14:36:46.708Z,82.72
2023-03-13T14:39:21.555Z,82.76
2023-03-13T14:41:52.940Z,82.47
2023-03-13T14:44:26.256Z,82.45
2023-03-13T14:46:58.347Z,82.10
2023-03-13T14:49:29.780Z,82.36
2023-03-13T14:52:04.321Z,82.61
2023-03-13T14:54:35.043Z,82.70
2023-03-13T14:57:26.885Z,83.25
2023-03-13T14:59:57.521Z,83.09
2023-03-13T15:02:27.532Z,83.20
2023-03-13T15:05:29.479Z,83.56
2023-03-13T15:08:04.190Z,83.73
2023-03-13T15:10:37.149Z,83.97
2023-03-13T15:13:17.686Z,83.72
2023-03-13T15:15:51.102Z,83.63
2023-03-13T15:18:22.102Z,83.56
2023-03-13T15:20:54.077Z,83.43
2023-03-13T15:23:22.206Z,83.33
2023-03-13T15:26:09.967Z,83.25
2023-03-13T15:28:37.123Z,83.11
2023-03-13T15:31:04.416Z,82.76
2023-03-13T15:33:32.815Z,82.95
2023-03-13T15:36:00.191Z,82.68
2023-03-13T15:38:48.418Z,82.50
2023-03-13T15:41:15.649Z,82.58
2023-03-13T15:43:42.786Z,82.58
2023-03-13T15:46:14.620Z,82.50
2023-03-13T15:48:42.214Z,82.54
2023-03-13T15:51:13.361Z,82.46
2023-03-13T15:53:41.705Z,82.50
2023-03-13T15:56:16.616Z,82.36
2023-03-13T15:58:44.191Z,82.19
2023-03-13T16:01:13.483Z,82.19
2023-03-13T16:04:00.909Z,82.16
2023-03-13T16:06:31.602Z,81.90
2023-03-13T16:09:02.611Z,81.78
2023-03-13T16:11:30.789Z,81.67
2023-03-13T16:13:59.099Z,81.62
2023-03-13T16:16:40.749Z,81.47
2023-03-13T16:19:13.280Z,81.35
2023-03-13T16:21:48.575Z,81.38
2023-03-13T16:24:19.573Z,81.44
2023-03-13T16:26:47.002Z,81.51
2023-03-13T16:29:27.080Z,81.33
2023-03-13T16:31:54.419Z,81.25
2023-03-13T16:34:24.681Z,81.25
2023-03-13T16:36:52.423Z,81.22
2023-03-13T16:39:19.848Z,81.29
2023-03-13T16:41:49.732Z,81.24
2023-03-13T16:44:17.282Z,81.07
2023-03-13T16:47:02.820Z,81.04
2023-03-13T16:49:32.379Z,80.85
2023-03-13T16:52:02.368Z,80.85
2023-03-13T16:54:49.900Z,80.80
2023-03-13T16:57:23.953Z,80.72
2023-03-13T16:59:59.270Z,80.57
2023-03-13T17:02:28.833Z,80.52
2023-03-13T17:04:58.480Z,80.40
2023-03-13T17:07:29.667Z,80.31
2023-03-13T17:09:57.113Z,80.18
2023-03-13T17:12:33.587Z,80.13
2023-03-13T17:15:01.067Z,79.99
2023-03-13T17:17:42.285Z,79.90
2023-03-13T17:20:30.877Z,79.81
2023-03-13T17:23:19.917Z,79.61
2023-03-13T17:25:49.875Z,79.26
2023-03-13T17:28:17.183Z,79.10
2023-03-13T17:30:44.390Z,79.00
2023-03-13T17:33:11.678Z,78.64
2023-03-13T17:35:39.325Z,78.42
2023-03-13T17:38:06.724Z,78.01
2023-03-13T17:40:42.939Z,77.87
2023-03-13T17:43:13.998Z,77.77
2023-03-13T17:45:41.476Z,77.30
2023-03-13T17:48:21.933Z,77.24
2023-03-13T17:50:49.214Z,76.78
2023-03-13T17:53:16.656Z,76.51
2023-03-13T17:55:44.525Z,76.32
2023-03-13T17:58:11.763Z,75.90
2023-03-13T18:00:45.749Z,75.58
2023-03-13T18:03:13.733Z,75.40
2023-03-13T18:05:51.193Z,75.46
2023-03-13T18:08:19.130Z,75.14
2023-03-13T18:10:46.344Z,74.94
2023-03-13T18:13:13.585Z,74.39
2023-03-13T18:15:40.949Z,74.62
2023-03-13T18:18:28.727Z,74.22
2023-03-13T18:20:56.109Z,73.88
2023-03-13T18:23:41.853Z,73.56
2023-03-13T18:26:21.621Z,73.38
2023-03-13T18:28:59.567Z,73.37
2023-03-13T18:31:28.969Z,73.47
2023-03-13T18:33:56.488Z,73.38
2023-03-13T18:36:23.846Z,73.07
2023-03-13T18:38:51.388Z,72.72
2023-03-13T18:41:19.120Z,72.27
2023-03-13T18:43:49.565Z,72.51
2023-03-13T18:46:22.810Z,72.45
2023-03-13T18:48:50.591Z,71.96
2023-03-13T18:51:19.121Z,71.95
2023-03-13T18:53:57.340Z,72.08
2023-03-13T18:56:26.493Z,71.22
2023-03-13T18:58:57.445Z,71.65
2023-03-13T19:01:47.285Z,71.36
2023-03-13T19:04:24.621Z,71.47
2023-03-13T19:06:53.482Z,71.12
2023-03-13T19:12:20.218Z,70.57
2023-03-13T19:14:47.596Z,70.04
2023-03-13T19:17:21.351Z,70.18
2023-03-13T19:19:48.704Z,69.54
2023-03-13T19:22:16.651Z,69.42
2023-03-13T19:24:44.323Z,69.15
2023-03-13T19:27:16.908Z,69.18
2023-03-13T19:29:44.296Z,69.19
2023-03-13T19:32:15.345Z,69.28
2023-03-13T19:34:42.678Z,69.18
2023-03-13T19:37:14.405Z,69.28
2023-03-13T19:39:44.282Z,69.35
2023-03-13T19:42:14.848Z,68.97
2023-03-13T19:44:51.056Z,68.98
2023-03-13T19:47:18.547Z,69.25
2023-03-13T19:49:49.880Z,69.38
2023-03-13T19:52:17.754Z,68.94
2023-03-13T19:54:45.031Z,68.99
2023-03-13T19:57:13.083Z,68.95
2023-03-13T19:59:42.940Z,68.70
2023-03-13T20:02:12.237Z,68.65
2023-03-13T20:05:00.226Z,68.78
2023-03-13T20:07:48.393Z,68.54
2023-03-13T20:10:15.709Z,68.27
2023-03-13T20:12:45.872Z,68.46
2023-03-13T20:15:14.323Z,68.15
2023-03-13T20:17:49.231Z,67.89
2023-03-13T20:20:18.833Z,67.62
2023-03-13T20:22:46.253Z,67.88
2023-03-13T20:25:25.305Z,67.79
2023-03-13T20:28:02.790Z,67.58
2023-03-13T20:30:30.470Z,67.42
2023-03-13T20:33:07.381Z,67.69
2023-03-13T20:35:39.769Z,67.69
2023-03-13T20:38:07.997Z,67.64
2023-03-13T20:40:36.056Z,67.36
2023-03-13T20:43:04.540Z,67.65
2023-03-13T20:45:32.139Z,67.85
2023-03-13T20:48:02.430Z,67.63
2023-03-13T20:50:29.661Z,67.53
2023-03-13T20:52:59.082Z,67.50
2023-03-13T20:55:26.461Z,67.63
2023-03-13T20:57:53.737Z,67.27
2023-03-13T21:00:23.559Z,67.36
2023-03-13T21:02:51.574Z,67.50
2023-03-13T21:05:24.457Z,67.63
2023-03-13T21:07:51.874Z,67.38
2023-03-13T21:10:19.696Z,67.41
2023-03-13T21:12:47.891Z,67.15
2023-03-13T21:15:35.597Z,67.25
2023-03-13T21:18:13.955Z,67.20
2023-03-13T21:20:41.635Z,67.23
2023-03-13T21:23:29.125Z,67.15
2023-03-13T21:26:00.640Z,67.12
2023-03-13T21:28:28.094Z,67.03
2023-03-13T21:31:12.717Z,66.93
2023-03-13T21:34:00.126Z,66.69
2023-03-13T21:36:27.459Z,66.47
2023-03-13T21:38:57.674Z,66.74
2023-03-13T21:41:25.240Z,66.69
2023-03-13T21:44:02.486Z,66.39
2023-03-13T21:46:33.290Z,66.39
2023-03-13T21:49:01.342Z,66.43
2023-03-13T21:51:39.728Z,66.19
2023-03-13T21:54:10.155Z,66.28
2023-03-13T21:56:37.523Z,66.11
2023-03-13T21:59:09.939Z,66.07
2023-03-13T22:01:37.044Z,66.11
2023-03-13T22:04:07.625Z,66.37
2023-03-13T22:06:35.422Z,66.29
2023-03-13T22:09:02.865Z,66.37
2023-03-13T22:11:32.354Z,66.29
2023-03-13T22:14:02.174Z,66.38
2023-03-13T22:16:29.568Z,66.48
2023-03-13T22:18:57.013Z,66.52
2023-03-13T22:21:24.497Z,66.51
2023-03-13T22:23:54.303Z,66.63
2023-03-13T22:26:21.641Z,66.28
2023-03-13T22:28:50.602Z,66.54
2023-03-13T22:31:18.562Z,66.45
2023-03-13T22:33:48.475Z,66.67
2023-03-13T22:36:19.241Z,66.74
2023-03-13T22:39:08.714Z,66.24
2023-03-13T22:41:39.063Z,66.36
2023-03-13T22:44:06.773Z,66.55
2023-03-13T22:46:33.867Z,66.40
2023-03-13T22:49:06.105Z,66.44
2023-03-13T22:51:53.673Z,66.34
2023-03-13T22:54:20.923Z,66.49
2023-03-13T22:57:08.651Z,66.35
2023-03-13T22:59:36.169Z,66.48
2023-03-13T23:02:06.532Z,66.20
2023-03-13T23:04:33.803Z,66.21
2023-03-13T23:07:03.447Z,66.08
2023-03-13T23:09:30.756Z,66.21
2023-03-13T23:11:58.076Z,66.06
2023-03-13T23:14:29.276Z,66.18
2023-03-13T23:16:56.976Z,65.73
2023-03-13T23:19:24.424Z,65.80
2023-03-13T23:21:54.634Z,65.72
2023-03-13T23:24:25.104Z,65.53
2023-03-13T23:27:02.367Z,65.45
2023-03-13T23:29:29.737Z,65.30
2023-03-13T23:31:59.175Z,65.10
2023-03-13T23:34:26.431Z,65.05
2023-03-13T23:36:58.044Z,64.92
2023-03-13T23:39:28.014Z,65.07
2023-03-13T23:42:00.170Z,65.02
2023-03-13T23:44:27.410Z,64.98
2023-03-13T23:46:54.749Z,64.73
2023-03-13T23:49:40.861Z,65.04
2023-03-13T23:52:11.342Z,64.89
2023-03-13T23:54:39.047Z,64.89
2023-03-13T23:57:06.619Z,64.93
2023-03-13T23:59:36.295Z,65.04
